createdAt,value
2023-09-17T00:04:08.426Z,84.82
2023-09-17T00:09:10.472Z,85.03
2023-09-17T00:14:12.283Z,84.85
2023-09-17T00:19:14.553Z,84.82
2023-09-17T00:24:16.385Z,84.76
2023-09-17T00:29:18.213Z,85.00
2023-09-17T00:34:20.175Z,84.93
2023-09-17T00:39:22.033Z,85.42
2023-09-17T00:44:23.822Z,85.56
2023-09-17T00:49:26.226Z,85.59
2023-09-17T00:54:30.373Z,85.67
2023-09-17T00:59:32.331Z,85.73
2023-09-17T01:04:34.538Z,85.99
2023-09-17T01:09:38.538Z,85.92
2023-09-17T01:14:41.034Z,85.83
2023-09-17T01:19:44.249Z,85.88
2023-09-17T01:25:13.574Z,86.81
2023-09-17T01:30:18.179Z,87.07
2023-09-17T01:35:20.173Z,87.00
2023-09-17T01:40:23.552Z,86.73
2023-09-17T01:45:28.192Z,87.04
2023-09-17T01:50:31.819Z,87.26
2023-09-17T01:55:34.004Z,87.42
2023-09-17T02:00:35.861Z,87.83
2023-09-17T02:05:37.710Z,87.94
2023-09-17T02:10:41.942Z,87.79
2023-09-17T02:15:46.410Z,87.59
2023-09-17T02:20:48.574Z,87.61
2023-09-17T02:25:50.696Z,87.74
2023-09-17T02:30:52.551Z,87.86
2023-09-17T02:35:55.120Z,87.58
2023-09-17T02:40:57.160Z,87.64
2023-09-17T02:45:59.131Z,87.75
2023-09-17T02:51:03.938Z,87.85
2023-09-17T02:56:05.795Z,87.70
2023-09-17T03:01:19.531Z,88.15
2023-09-17T03:06:21.776Z,87.96
2023-09-17T03:11:24.744Z,87.80
2023-09-17T03:16:27.119Z,87.60
2023-09-17T03:21:29.238Z,87.48
2023-09-17T03:26:31.775Z,87.21
2023-09-17T03:31:35.873Z,87.26
2023-09-17T03:36:38.525Z,87.39
2023-09-17T03:41:42.113Z,87.73
2023-09-17T03:46:44.374Z,87.45
2023-09-17T03:51:46.650Z,87.09
2023-09-17T03:56:49.732Z,87.47
2023-09-17T04:01:51.822Z,87.83
2023-09-17T04:06:53.883Z,87.98
2023-09-17T04:11:55.666Z,88.10
2023-09-17T04:16:58.140Z,88.10
2023-09-17T04:22:00.694Z,88.10
2023-09-17T04:27:02.906Z,88.00
2023-09-17T04:32:05.038Z,87.97
2023-09-17T04:37:08.028Z,87.95
2023-09-17T04:42:09.892Z,87.81
2023-09-17T04:47:12.285Z,87.89
2023-09-17T04:52:14.468Z,87.93
2023-09-17T04:57:17.241Z,87.96
2023-09-17T05:02:19.535Z,87.83
2023-09-17T05:07:22.649Z,87.77
2023-09-17T05:12:38.266Z,87.98
2023-09-17T05:17:40.248Z,88.24
2023-09-17T05:22:42.384Z,88.22
2023-09-17T05:27:50.254Z,87.89
2023-09-17T05:32:56.347Z,87.41
2023-09-17T05:37:58.704Z,86.97
2023-09-17T05:43:00.717Z,87.07
2023-09-17T05:48:03.382Z,86.69
2023-09-17T05:53:05.742Z,86.13
2023-09-17T05:58:07.721Z,86.16
2023-09-17T06:03:10.397Z,86.12
2023-09-17T06:08:12.372Z,85.74
2023-09-17T06:13:14.139Z,85.04
2023-09-17T06:18:18.183Z,84.20
2023-09-17T06:23:20.426Z,83.96
2023-09-17T06:28:23.156Z,84.22
2023-09-17T06:33:25.417Z,83.72
2023-09-17T06:38:27.398Z,82.68
2023-09-17T06:43:32.193Z,81.75
2023-09-17T06:48:34.041Z,80.90
2023-09-17T06:53:35.867Z,79.96
2023-09-17T06:58:37.752Z,78.79
2023-09-17T07:03:40.107Z,77.58
2023-09-17T07:08:45.555Z,76.79
2023-09-17T07:13:47.428Z,75.47
2023-09-17T07:18:49.599Z,75.03
2023-09-17T07:23:52.266Z,74.19
2023-09-17T07:28:54.633Z,72.81
2023-09-17T07:33:56.570Z,71.96
2023-09-17T07:38:58.346Z,70.93
2023-09-17T07:44:00.233Z,69.24
2023-09-17T07:49:02.287Z,68.73
2023-09-17T07:54:04.239Z,67.74
2023-09-17T07:59:06.157Z,66.96
2023-09-17T08:04:10.829Z,66.66
2023-09-17T08:09:12.711Z,65.58
2023-09-17T08:14:15.804Z,65.31
2023-09-17T08:19:17.780Z,64.56
2023-09-17T08:24:21.855Z,63.60
2023-09-17T08:29:24.142Z,63.06
2023-09-17T08:34:25.925Z,63.22
2023-09-17T08:39:27.792Z,63.74
2023-09-17T08:44:59.751Z,63.22
2023-09-17T08:50:01.829Z,63.41
2023-09-17T08:55:06.240Z,63.65
2023-09-17T09:00:11.381Z,63.55
2023-09-17T09:05:16.298Z,63.01
2023-09-17T09:10:19.664Z,62.71
2023-09-17T09:15:22.419Z,62.23
2023-09-17T09:20:24.237Z,61.03
2023-09-17T09:25:28.211Z,60.45
2023-09-17T09:30:30.925Z,60.10
2023-09-17T09:35:33.011Z,59.60
2023-09-17T09:40:38.404Z,58.67
2023-09-17T09:45:42.318Z,58.83
2023-09-17T09:50:44.875Z,58.70
2023-09-17T09:55:48.184Z,58.45
2023-09-17T10:00:50.303Z,57.44
2023-09-17T10:05:52.192Z,56.80
2023-09-17T10:10:55.403Z,56.74
2023-09-17T10:15:57.612Z,56.51
2023-09-17T10:21:01.013Z,55.60
2023-09-17T10:26:04.747Z,55.11
2023-09-17T10:31:09.035Z,53.88
2023-09-17T10:36:12.576Z,53.21
2023-09-17T10:41:14.651Z,52.15
2023-09-17T10:46:17.089Z,51.22
2023-09-17T10:51:20.279Z,51.45
2023-09-17T10:56:23.583Z,50.85
2023-09-17T11:01:30.370Z,51.19
2023-09-17T11:06:36.035Z,50.11
2023-09-17T11:11:38.300Z,50.78
2023-09-17T11:16:40.176Z,50.99
2023-09-17T11:21:43.958Z,51.54
2023-09-17T11:26:47.220Z,52.65
2023-09-17T11:31:55.314Z,52.49
2023-09-17T11:36:59.221Z,52.37
2023-09-17T11:42:14.787Z,50.96
2023-09-17T11:47:18.637Z,51.05
2023-09-17T11:52:20.729Z,50.74
2023-09-17T11:57:26.954Z,50.17
2023-09-17T12:02:29.448Z,49.91
2023-09-17T12:07:42.276Z,50.09
2023-09-17T12:12:51.565Z,50.11
2023-09-17T12:17:54.131Z,50.24
2023-09-17T12:23:58.629Z,49.85
2023-09-17T12:29:00.575Z,49.81
2023-09-17T12:34:02.658Z,49.16
2023-09-17T12:39:05.711Z,49.97
2023-09-17T12:44:07.634Z,49.44
2023-09-17T12:49:10.175Z,49.36
2023-09-17T12:54:12.681Z,48.63
2023-09-17T12:59:14.547Z,49.12
2023-09-17T13:04:16.483Z,48.62
2023-09-17T13:09:18.632Z,48.49
2023-09-17T13:14:21.540Z,48.40
2023-09-17T13:19:23.684Z,47.73
2023-09-17T13:24:26.937Z,47.34
2023-09-17T13:29:41.466Z,46.92
2023-09-17T13:34:45.682Z,46.95
2023-09-17T13:39:50.991Z,47.23
2023-09-17T13:44:56.379Z,47.83
2023-09-17T13:49:59.913Z,47.61
2023-09-17T13:55:02.332Z,47.95
2023-09-17T14:00:04.619Z,48.35
2023-09-17T14:05:14.425Z,48.62
2023-09-17T14:10:18.048Z,48.43
2023-09-17T14:15:22.460Z,48.55
2023-09-17T14:20:24.259Z,48.01
2023-09-17T14:25:26.302Z,47.17
2023-09-17T14:30:29.268Z,46.43
2023-09-17T14:35:31.201Z,46.63
2023-09-17T14:40:33.221Z,46.05
2023-09-17T14:45:35.045Z,46.44
2023-09-17T14:50:36.922Z,46.51
2023-09-17T14:55:39.080Z,47.12
2023-09-17T15:00:40.871Z,47.75
2023-09-17T15:05:42.708Z,47.29
2023-09-17T15:10:44.843Z,47.07
2023-09-17T15:15:50.331Z,47.12
2023-09-17T15:20:52.126Z,47.28
2023-09-17T15:25:53.917Z,47.18
2023-09-17T15:30:55.854Z,47.53
2023-09-17T15:35:58.978Z,47.59
2023-09-17T15:41:04.679Z,47.77
2023-09-17T15:46:06.647Z,48.35
2023-09-17T15:51:08.492Z,48.83
2023-09-17T15:56:10.377Z,49.64
2023-09-17T16:01:12.381Z,49.82
2023-09-17T16:06:17.530Z,50.52
2023-09-17T16:11:19.583Z,51.37
2023-09-17T16:16:21.544Z,51.92
2023-09-17T16:21:23.380Z,52.62
2023-09-17T16:26:25.171Z,53.38
2023-09-17T16:31:27.977Z,54.37
2023-09-17T16:36:31.507Z,54.70
2023-09-17T16:41:33.459Z,55.15
2023-09-17T16:46:35.320Z,56.13
2023-09-17T16:51:45.110Z,56.83
2023-09-17T16:56:47.988Z,57.68
2023-09-17T17:01:49.943Z,59.08
2023-09-17T17:06:52.054Z,59.35
2023-09-17T17:11:54.752Z,60.29
2023-09-17T17:16:58.525Z,61.21
2023-09-17T17:22:00.482Z,62.14
2023-09-17T17:27:02.498Z,63.32
2023-09-17T17:32:04.795Z,64.61
2023-09-17T17:37:06.784Z,65.69
2023-09-17T17:42:08.539Z,66.30
2023-09-17T17:47:10.320Z,67.08
2023-09-17T17:52:12.134Z,67.76
2023-09-17T17:57:14.295Z,68.61
2023-09-17T18:02:16.380Z,69.25
2023-09-17T18:07:18.440Z,69.93
2023-09-17T18:12:20.489Z,70.37
2023-09-17T18:17:22.511Z,70.71
2023-09-17T18:22:24.604Z,70.95
2023-09-17T18:27:26.993Z,71.41
2023-09-17T18:32:28.762Z,71.71
2023-09-17T18:37:31.539Z,72.60
2023-09-17T18:42:34.566Z,73.14
2023-09-17T18:47:36.457Z,73.53
2023-09-17T18:52:38.375Z,73.79
2023-09-17T18:57:41.054Z,74.18
2023-09-17T19:02:44.672Z,74.65
2023-09-17T19:07:47.356Z,75.11
2023-09-17T19:12:57.499Z,75.18
2023-09-17T19:17:59.406Z,75.72
2023-09-17T19:23:01.375Z,76.16
2023-09-17T19:28:05.692Z,76.70
2023-09-17T19:33:07.840Z,77.02
2023-09-17T19:38:09.927Z,77.88
2023-09-17T19:43:12.072Z,78.29
2023-09-17T19:49:46.866Z,78.61
2023-09-17T19:55:28.918Z,78.57
2023-09-17T20:00:34.595Z,78.41
2023-09-17T20:05:36.892Z,78.47
2023-09-17T20:10:39.874Z,78.42
2023-09-17T20:15:46.427Z,78.56
2023-09-17T20:20:49.578Z,78.84
2023-09-17T20:25:51.577Z,78.66
2023-09-17T20:30:53.777Z,78.39
2023-09-17T20:35:56.358Z,78.23
2023-09-17T20:40:59.243Z,78.34
2023-09-17T20:46:01.101Z,78.34
2023-09-17T20:51:05.050Z,78.38
2023-09-17T20:56:07.518Z,78.53
2023-09-17T21:01:09.520Z,78.58
2023-09-17T21:06:11.722Z,79.02
2023-09-17T21:11:17.543Z,79.24
2023-09-17T21:16:19.936Z,79.31
2023-09-17T21:21:21.903Z,79.90
2023-09-17T21:26:24.958Z,80.20
2023-09-17T21:31:27.562Z,80.69
2023-09-17T21:36:30.185Z,80.87
2023-09-17T21:41:32.312Z,81.03
2023-09-17T21:46:35.483Z,81.33
2023-09-17T21:51:37.321Z,81.66
2023-09-17T21:56:39.313Z,82.27
2023-09-17T22:01:41.531Z,82.08
2023-09-17T22:06:43.568Z,81.97
2023-09-17T22:11:45.337Z,81.80
2023-09-17T22:16:47.233Z,81.89
2023-09-17T22:21:49.709Z,82.14
2023-09-17T22:26:52.141Z,82.28
2023-09-17T22:31:54.128Z,82.42
2023-09-17T22:36:57.693Z,82.27
2023-09-17T22:41:59.617Z,82.45
2023-09-17T22:47:01.523Z,82.70
2023-09-17T22:52:05.026Z,82.71
2023-09-17T22:57:07.057Z,82.68
2023-09-17T23:02:09.358Z,83.00
2023-09-17T23:07:11.226Z,83.16
2023-09-17T23:12:15.681Z,83.16
2023-09-17T23:17:18.693Z,82.95
2023-09-17T23:22:20.612Z,83.58
2023-09-17T23:27:25.053Z,83.73
2023-09-17T23:32:31.430Z,84.24
2023-09-17T23:37:33.401Z,84.88
2023-09-17T23:42:35.483Z,84.99
2023-09-17T23:47:37.376Z,84.95
2023-09-17T23:52:40.230Z,84.70
2023-09-17T23:57:42.295Z,84.79
